Time;durP1;ratioP1;P1;durP2;ratioP2;P2;SDS_P1;SDS_P2;PMS_P1;PMS_P2;Temp;Humidity;BMP_temperature;BMP_pressure;BME280_temperature;BME280_humidity;BME280_pressure;Samples;Min_cycle;Max_cycle;Signal;HPM_P1;HPM_P2
2022/03/22 00:02:10;;;;;;;11.65;8.25;;;;;;;5.29;53.55;97690.78;5044874;28;20068;-63
2022/03/22 00:04:39;;;;;;;11.83;8.63;;;;;;;5.17;54.14;97694.06;5046477;28;20076;-59
2022/03/22 00:07:08;;;;;;;13.90;8.30;;;;;;;5.27;53.38;97697.88;5045164;28;20537;-62
2022/03/22 00:09:37;;;;;;;15.02;8.20;;;;;;;5.20;53.67;97701.75;5044038;28;20060;-60
2022/03/22 00:12:07;;;;;;;12.25;8.30;;;;;;;5.13;54.10;97705.63;5044921;28;20099;-64
2022/03/22 00:14:35;;;;;;;11.80;8.55;;;;;;;5.33;53.03;97700.16;5045539;28;20077;-62
2022/03/22 00:17:25;;;;;;;13.82;9.23;;;;;;;5.26;53.19;97703.19;5043433;28;21524;-64
2022/03/22 00:19:58;;;;;;;10.82;7.95;;;;;;;5.20;52.79;97707.81;5045427;28;20507;-58
2022/03/22 00:22:27;;;;;;;11.30;8.25;;;;;;;5.02;53.69;97711.38;5045858;28;20065;-59
2022/03/22 00:24:55;;;;;;;13.05;7.97;;;;;;;5.10;53.51;97704.00;5047030;28;20064;-62
2022/03/22 00:27:25;;;;;;;10.48;7.70;;;;;;;5.13;52.87;97703.84;5044735;28;20107;-57
2022/03/22 00:29:53;;;;;;;10.45;7.93;;;;;;;5.12;53.03;97706.53;5044649;28;20080;-61
2022/03/22 00:32:21;;;;;;;13.32;8.30;;;;;;;4.97;54.09;97710.78;5046760;28;20068;-62
2022/03/22 00:34:51;;;;;;;10.63;8.38;;;;;;;4.93;53.39;97707.50;5046232;28;20061;-62
2022/03/22 00:37:19;;;;;;;12.40;8.27;;;;;;;4.91;53.88;97709.31;5045831;28;20530;-63
2022/03/22 00:39:48;;;;;;;12.70;8.00;;;;;;;4.76;53.82;97703.13;5039834;28;20068;-64
2022/03/22 00:42:16;;;;;;;12.13;7.90;;;;;;;4.85;53.47;97696.59;5044248;28;20175;-61
2022/03/22 00:44:44;;;;;;;14.77;8.40;;;;;;;4.79;53.27;97707.34;5046766;28;20088;-61
2022/03/22 00:47:12;;;;;;;10.82;8.10;;;;;;;4.86;53.91;97708.72;5044910;28;20091;-59
2022/03/22 00:49:40;;;;;;;11.10;8.30;;;;;;;4.90;53.25;97699.81;5044997;28;20061;-60
2022/03/22 00:52:10;;;;;;;12.30;7.75;;;;;;;4.85;52.88;97698.34;5044547;28;20069;-62
2022/03/22 00:54:38;;;;;;;15.82;8.18;;;;;;;4.96;52.12;97701.25;5044794;28;20462;-62
2022/03/22 00:57:07;;;;;;;11.57;8.45;;;;;;;4.79;53.34;97696.91;5044761;28;20080;-59
2022/03/22 01:02:21;;;;;;;13.48;8.32;;;;;;;4.79;53.25;97696.91;5043929;28;20467;-59
2022/03/22 01:04:49;;;;;;;10.98;7.97;;;;;;;4.87;52.57;97704.34;5045586;28;20060;-62
2022/03/22 01:07:20;;;;;;;13.00;9.00;;;;;;;4.80;52.69;97700.34;5046884;28;20100;-63
2022/03/22 01:09:48;;;;;;;12.30;8.18;;;;;;;4.75;52.92;97695.38;5049097;28;20091;-64
2022/03/22 01:12:16;;;;;;;11.73;8.25;;;;;;;4.65;52.76;97691.53;5047948;28;20550;-64
2022/03/22 01:14:45;;;;;;;12.30;8.05;;;;;;;4.69;53.17;97696.53;5049884;28;20081;-62
2022/03/22 01:17:13;;;;;;;11.68;8.45;;;;;;;4.71;52.93;97701.66;5044441;28;20401;-62
2022/03/22 01:19:41;;;;;;;12.90;8.38;;;;;;;4.68;53.08;97699.19;5045180;28;20082;-62
2022/03/22 01:22:10;;;;;;;14.00;7.85;;;;;;;4.73;53.06;97702.44;5048116;28;20064;-66
2022/03/22 01:24:39;;;;;;;14.23;8.98;;;;;;;4.68;52.97;97697.44;5048120;28;20073;-59
2022/03/22 01:27:07;;;;;;;10.95;8.35;;;;;;;4.59;53.85;97694.44;5047745;28;20087;-63
2022/03/22 01:29:37;;;;;;;14.80;8.88;;;;;;;4.55;53.78;97692.91;5046992;28;20077;-63
2022/03/22 01:32:06;;;;;;;11.10;8.10;;;;;;;4.46;55.93;97694.22;5045987;28;20721;-63
2022/03/22 01:34:34;;;;;;;14.95;8.10;;;;;;;4.37;55.58;97687.69;5047269;28;20444;-63
2022/03/22 01:37:02;;;;;;;12.98;8.43;;;;;;;4.38;54.96;97686.75;5048036;28;20069;-63
2022/03/22 01:39:31;;;;;;;10.07;8.07;;;;;;;4.34;54.44;97687.00;5047943;28;20171;-61
2022/03/22 01:42:01;;;;;;;10.90;8.70;;;;;;;4.31;54.47;97681.94;5048010;28;20085;-58
2022/03/22 01:44:29;;;;;;;13.97;8.53;;;;;;;4.09;58.53;97692.56;5048990;28;20109;-60
2022/03/22 01:46:59;;;;;;;11.95;8.27;;;;;;;3.71;61.36;97693.47;5048797;28;20551;-60
2022/03/22 01:49:28;;;;;;;12.32;8.30;;;;;;;3.61;66.86;97691.34;5047149;28;20075;-61
2022/03/22 01:51:56;;;;;;;11.48;8.80;;;;;;;3.88;64.51;97673.56;5048332;28;20079;-62
2022/03/22 01:54:25;;;;;;;10.48;8.23;;;;;;;3.86;64.03;97673.66;5047236;28;20131;-62
2022/03/22 01:56:54;;;;;;;13.85;8.13;;;;;;;3.87;62.20;97684.91;5048809;28;20077;-61
2022/03/22 01:59:23;;;;;;;13.27;8.80;;;;;;;3.86;60.14;97672.81;5044499;28;20467;-63
2022/03/22 02:07:23;;;;;;;15.60;8.43;;;;;;;3.63;61.18;97679.09;5047103;28;20077;-60
2022/03/22 02:09:52;;;;;;;12.20;8.23;;;;;;;3.51;62.49;97672.66;5046178;28;20071;-64
2022/03/22 02:12:20;;;;;;;12.00;8.35;;;;;;;3.59;62.83;97674.94;5046583;28;20060;-62
2022/03/22 02:14:50;;;;;;;11.90;8.18;;;;;;;3.74;60.90;97661.16;5047869;28;20546;-60
2022/03/22 02:17:18;;;;;;;10.50;7.72;;;;;;;3.82;59.75;97664.28;5045007;28;20526;-62
2022/03/22 02:19:48;;;;;;;12.88;8.65;;;;;;;3.52;62.08;97675.22;5046869;28;20080;-59
2022/03/22 02:22:18;;;;;;;12.60;8.65;;;;;;;3.30;63.31;97679.72;5046693;28;20585;-60
2022/03/22 02:24:48;;;;;;;15.35;8.73;;;;;;;3.59;62.25;97664.50;5046905;28;20095;-61
2022/03/22 02:27:16;;;;;;;13.50;8.63;;;;;;;3.55;61.39;97669.03;5046259;28;20056;-65
2022/03/22 02:29:44;;;;;;;12.15;8.57;;;;;;;3.51;62.15;97670.94;5047168;28;20083;-65
2022/03/22 02:32:13;;;;;;;12.85;8.35;;;;;;;3.50;62.38;97676.19;5045993;28;20486;-63
2022/03/22 02:34:42;;;;;;;10.60;7.68;;;;;;;3.47;62.15;97665.91;5047228;28;20111;-60
2022/03/22 02:37:10;;;;;;;12.88;8.57;;;;;;;3.44;61.93;97666.06;5046474;28;20466;-63
2022/03/22 02:39:38;;;;;;;11.48;8.68;;;;;;;3.45;61.39;97671.22;5047005;28;20057;-63
2022/03/22 02:42:09;;;;;;;14.02;8.23;;;;;;;3.45;61.30;97666.00;5046195;28;20484;-62
2022/03/22 02:44:37;;;;;;;;;;;;;;;3.66;59.36;97658.94;5048159;28;20624;-61
2022/03/22 02:47:06;;;;;;;12.57;7.75;;;;;;;3.38;60.57;97661.97;5043829;28;20421;-62
2022/03/22 02:49:34;;;;;;;12.85;7.80;;;;;;;3.50;60.26;97671.81;5046220;28;20068;-63
2022/03/22 02:52:03;;;;;;;11.90;8.68;;;;;;;3.62;59.36;97664.38;5046945;28;20116;-59
2022/03/22 02:54:31;;;;;;;10.48;8.05;;;;;;;3.39;60.86;97668.88;5045800;28;20471;-61
2022/03/22 02:56:59;;;;;;;12.00;8.23;;;;;;;3.33;61.48;97666.53;5046867;28;20080;-58
2022/03/22 02:59:29;;;;;;;11.80;8.55;;;;;;;3.11;61.74;97665.84;5046080;28;20083;-60
2022/03/22 03:01:58;;;;;;;12.25;8.30;;;;;;;3.40;60.14;97667.94;5046874;28;20065;-62
2022/03/22 03:04:26;;;;;;;13.00;8.65;;;;;;;3.36;59.50;97662.97;5045431;28;20213;-62
2022/03/22 03:06:54;;;;;;;14.90;9.00;;;;;;;3.23;59.37;97668.72;5044403;28;20072;-64
2022/03/22 03:09:22;;;;;;;9.98;8.00;;;;;;;3.45;58.83;97672.97;5043425;28;20080;-63
2022/03/22 03:11:51;;;;;;;11.13;8.45;;;;;;;3.48;58.25;97673.69;5044198;28;20072;-64
2022/03/22 03:17:07;;;;;;;11.60;8.13;;;;;;;3.49;58.14;97666.69;5040430;28;20048;-64
2022/03/22 03:19:36;;;;;;;13.52;8.30;;;;;;;3.40;58.45;97667.94;5043209;28;20098;-62
2022/03/22 03:22:05;;;;;;;13.57;8.50;;;;;;;3.47;57.65;97668.53;5042440;28;20076;-60
2022/03/22 03:24:34;;;;;;;15.15;8.80;;;;;;;3.36;58.38;97662.97;5039558;28;20071;-63
2022/03/22 03:27:03;;;;;;;11.45;8.63;;;;;;;3.41;58.37;97672.28;5042858;28;20087;-59
2022/03/22 03:29:31;;;;;;;12.48;8.65;;;;;;;3.23;59.08;97670.50;5041536;28;20076;-62
2022/03/22 03:31:59;;;;;;;11.30;8.55;;;;;;;3.38;59.29;97677.63;5039686;28;20061;-61
2022/03/22 03:34:29;;;;;;;10.82;7.93;;;;;;;3.22;59.70;97682.69;5039137;28;20061;-62
2022/03/22 03:36:57;;;;;;;11.40;8.35;;;;;;;3.16;60.94;97682.94;5045185;28;20079;-59
2022/03/22 03:39:25;;;;;;;10.77;8.05;;;;;;;3.21;60.62;97695.78;5045626;28;20545;-59
2022/03/22 03:41:56;;;;;;;13.30;9.05;;;;;;;2.88;61.50;97692.91;5045234;28;20083;-59
2022/03/22 03:47:12;;;;;;;14.25;8.57;;;;;;;2.80;63.86;97694.09;5044088;28;20546;-59
2022/03/22 03:49:43;;;;;;;13.45;8.52;;;;;;;2.66;64.95;97693.84;5043252;28;20535;-60
2022/03/22 03:52:11;;;;;;;;;;;;;;;2.64;66.31;97697.41;5044897;28;20057;-61
2022/03/22 03:54:41;;;;;;;10.40;7.85;;;;;;;2.65;66.01;97699.97;5043852;28;19975;-60
2022/03/22 03:57:10;;;;;;;11.55;8.88;;;;;;;2.84;65.54;97703.47;5043603;28;20064;-64
2022/03/22 03:59:39;;;;;;;12.50;8.73;;;;;;;2.77;64.80;97698.59;5043207;28;20084;-59
2022/03/22 04:02:08;;;;;;;14.93;8.82;;;;;;;2.87;64.69;97699.03;5044661;28;20041;-63
2022/03/22 04:04:37;;;;;;;13.40;8.95;;;;;;;2.77;64.96;97693.38;5042274;28;20083;-64
2022/03/22 04:07:08;;;;;;;11.90;8.20;;;;;;;2.75;65.80;97687.38;5042565;28;20060;-59
2022/03/22 04:09:38;;;;;;;12.63;8.10;;;;;;;2.72;69.06;97690.97;5045310;28;20471;-64
2022/03/22 04:12:08;;;;;;;11.63;8.63;;;;;;;2.62;68.86;97687.06;5042481;28;20089;-64
2022/03/22 04:14:36;;;;;;;11.05;8.23;;;;;;;2.55;66.71;97688.25;5045018;28;20077;-64
2022/03/22 04:17:07;;;;;;;13.10;8.48;;;;;;;1.98;74.82;97693.16;5044380;28;20076;-62
2022/03/22 04:19:36;;;;;;;13.32;8.43;;;;;;;1.92;87.24;97696.00;5045012;28;20069;-61
2022/03/22 04:22:08;;;;;;;14.23;9.00;;;;;;;2.06;78.72;97698.91;5045175;28;20557;-61
2022/03/22 04:24:36;;;;;;;11.98;8.68;;;;;;;2.15;73.35;97702.91;5042044;28;20164;-63
2022/03/22 04:32:43;;;;;;;12.02;8.48;;;;;;;2.09;73.09;97703.16;5043627;28;20088;-62
2022/03/22 04:35:12;;;;;;;15.13;9.10;;;;;;;1.95;73.34;97701.09;5044580;28;20076;-64
2022/03/22 04:37:42;;;;;;;13.07;9.07;;;;;;;1.78;77.92;97713.91;5043714;28;20052;-61
2022/03/22 04:40:14;;;;;;;13.05;9.07;;;;;;;1.22;95.95;97716.91;5045912;28;20072;-61
2022/03/22 04:42:42;;;;;;;12.63;8.65;;;;;;;1.08;100.00;97720.00;5049235;28;20104;-60
2022/03/22 04:45:11;;;;;;;12.02;8.98;;;;;;;1.32;97.85;97710.47;5051441;28;20052;-59
2022/03/22 04:47:39;;;;;;;11.88;8.75;;;;;;;1.12;100.00;97716.41;5052568;28;20072;-61
2022/03/22 04:50:09;;;;;;;14.35;8.55;;;;;;;1.25;99.88;97715.06;5048831;28;20256;-64
2022/03/22 04:58:10;;;;;;;10.10;8.32;;;;;;;1.73;87.57;97708.06;5045606;28;20076;-64
2022/03/22 05:00:39;;;;;;;16.05;9.48;;;;;;;1.81;85.07;97711.19;5047113;28;20061;-62
2022/03/22 05:03:07;;;;;;;13.38;9.05;;;;;;;1.76;84.11;97710.53;5045841;28;20537;-60
2022/03/22 05:08:18;;;;;;;11.43;8.80;;;;;;;1.89;85.50;97716.94;5010990;28;21481;-61
2022/03/22 05:10:48;;;;;;;13.70;9.57;;;;;;;1.94;84.96;97714.19;5047526;28;20072;-61
2022/03/22 05:13:21;;;;;;;13.10;8.57;;;;;;;1.92;84.60;97719.41;5046851;28;20044;-61
2022/03/22 05:15:49;;;;;;;13.45;9.75;;;;;;;1.98;85.28;97715.75;5043366;28;20473;-63
2022/03/22 05:18:18;;;;;;;15.70;9.02;;;;;;;2.08;83.33;97714.47;5048535;28;20594;-61
2022/03/22 05:20:46;;;;;;;11.57;8.60;;;;;;;2.12;82.76;97724.69;5051232;28;20075;-62
2022/03/22 05:23:17;;;;;;;13.57;8.80;;;;;;;2.45;78.84;97720.78;5050389;28;20460;-62
2022/03/22 05:25:45;;;;;;;13.02;8.23;;;;;;;2.23;78.70;97721.66;5051494;28;20068;-61
2022/03/22 05:28:15;;;;;;;13.52;8.40;;;;;;;2.36;78.84;97722.84;5051337;28;20077;-60
2022/03/22 05:30:43;;;;;;;13.20;8.73;;;;;;;2.73;76.37;97721.31;5053343;28;20065;-58
2022/03/22 05:33:11;;;;;;;10.75;8.48;;;;;;;3.09;71.10;97721.47;5051134;28;20068;-60
2022/03/22 05:35:39;;;;;;;12.63;8.13;;;;;;;2.97;71.49;97721.19;5052246;28;20471;-59
2022/03/22 05:38:07;;;;;;;13.73;8.40;;;;;;;2.82;71.68;97722.66;5051281;28;20100;-62
2022/03/22 05:40:36;;;;;;;13.45;9.20;;;;;;;2.70;73.27;97718.84;5051068;28;20091;-60
2022/03/22 05:43:04;;;;;;;13.00;9.07;;;;;;;2.79;72.27;97718.47;5051313;28;20060;-56
2022/03/22 05:45:34;;;;;;;13.90;8.80;;;;;;;2.88;70.74;97721.56;5051147;28;20108;-59
2022/03/22 05:48:02;;;;;;;13.10;8.63;;;;;;;2.69;73.43;97724.13;5050870;28;20101;-58
2022/03/22 05:50:30;;;;;;;14.05;8.63;;;;;;;2.70;73.95;97720.59;5051218;28;20107;-62
2022/03/22 05:52:59;;;;;;;13.38;8.80;;;;;;;2.74;78.20;97728.22;5050124;28;20070;-59
2022/03/22 05:55:27;;;;;;;12.65;9.13;;;;;;;2.84;73.63;97733.88;5050664;28;20052;-59
2022/03/22 05:57:55;;;;;;;13.85;8.63;;;;;;;2.80;71.75;97727.97;5049391;28;20072;-61
2022/03/22 06:00:23;;;;;;;15.77;8.80;;;;;;;2.71;73.17;97728.34;5049436;28;20064;-59
2022/03/22 06:02:53;;;;;;;13.85;9.07;;;;;;;2.83;72.02;97729.59;5044322;28;20048;-58
2022/03/22 06:05:22;;;;;;;12.93;9.20;;;;;;;2.91;73.26;97735.31;5051168;28;20084;-61
2022/03/22 06:07:50;;;;;;;13.73;8.60;;;;;;;3.09;71.01;97736.25;5044545;28;20482;-62
2022/03/22 06:10:18;;;;;;;12.48;8.93;;;;;;;3.25;68.59;97734.69;5050337;28;20075;-61
2022/03/22 06:12:49;;;;;;;14.32;9.07;;;;;;;3.31;68.50;97733.56;5050469;28;20036;-60
2022/03/22 06:15:19;;;;;;;12.18;8.95;;;;;;;3.22;67.64;97731.38;5050946;28;20068;-59
2022/03/22 06:17:48;;;;;;;13.67;9.07;;;;;;;3.27;67.37;97735.47;5051249;28;20083;-58
2022/03/22 06:20:19;;;;;;;13.82;8.93;;;;;;;3.50;64.98;97737.03;5048851;28;20549;-60
2022/03/22 06:22:48;;;;;;;12.57;8.98;;;;;;;3.59;64.96;97727.94;5050664;28;20542;-62
2022/03/22 06:25:18;;;;;;;11.23;8.40;;;;;;;3.78;62.68;97735.75;5049972;28;20087;-60
2022/03/22 06:27:48;;;;;;;13.13;8.65;;;;;;;3.98;61.44;97735.69;5050505;28;20072;-57
2022/03/22 06:30:17;;;;;;;11.23;8.80;;;;;;;4.10;60.39;97738.66;5047867;28;20102;-61
2022/03/22 06:32:47;;;;;;;14.18;8.95;;;;;;;4.04;58.75;97738.00;5050748;28;20499;-61
2022/03/22 06:35:18;;;;;;;12.07;8.63;;;;;;;4.36;57.27;97737.38;5049672;28;20538;-59
2022/03/22 06:37:47;;;;;;;11.68;8.43;;;;;;;4.32;57.06;97736.69;5049989;28;20482;-60
2022/03/22 06:40:17;;;;;;;13.02;8.63;;;;;;;4.15;57.55;97741.88;5049717;28;20064;-58
2022/03/22 06:42:45;;;;;;;12.77;9.00;;;;;;;4.23;57.01;97740.59;5050559;28;20060;-56
2022/03/22 06:45:14;;;;;;;12.55;8.88;;;;;;;4.59;55.29;97744.09;5046908;28;20060;-58
2022/03/22 06:47:43;;;;;;;12.98;8.45;;;;;;;4.59;55.23;97731.03;5050518;28;20487;-59
2022/03/22 06:50:14;;;;;;;12.30;8.95;;;;;;;4.84;54.54;97743.69;5047888;28;20480;-59
2022/03/22 06:52:44;;;;;;;12.82;9.68;;;;;;;4.75;53.67;97740.63;5048271;28;20460;-60
2022/03/22 06:55:14;;;;;;;13.85;8.35;;;;;;;5.15;52.78;97742.97;5049782;28;20530;-61
2022/03/22 06:57:43;;;;;;;;;;;;;;;5.22;52.84;97749.56;5050926;28;20072;-60
2022/03/22 07:00:15;;;;;;;12.98;8.88;;;;;;;5.11;52.11;97755.38;5049170;28;19971;-61
2022/03/22 07:02:43;;;;;;;16.60;9.70;;;;;;;5.21;51.49;97750.50;5050525;28;20079;-61
2022/03/22 07:05:12;;;;;;;14.30;9.32;;;;;;;5.45;51.03;97757.06;5049269;28;20084;-59
2022/03/22 07:07:41;;;;;;;16.45;10.02;;;;;;;5.59;51.47;97755.50;5049875;28;20065;-60
2022/03/22 07:10:11;;;;;;;15.35;9.50;;;;;;;5.51;50.30;97755.06;5046861;28;20063;-57
2022/03/22 07:12:51;;;;;;;12.45;8.88;;;;;;;5.43;51.55;97755.44;5049888;28;20474;-61
2022/03/22 07:15:30;;;;;;;13.32;9.40;;;;;;;5.53;49.97;97756.66;5049362;28;20530;-61
2022/03/22 07:18:00;;;;;;;15.70;9.07;;;;;;;5.33;50.84;97762.94;5050183;28;20086;-58
2022/03/22 07:20:29;;;;;;;12.75;9.02;;;;;;;5.70;50.42;97768.84;5049742;28;20092;-60
2022/03/22 07:22:59;;;;;;;11.25;8.50;;;;;;;5.78;50.49;97764.06;5049575;28;20436;-58
2022/03/22 07:25:30;;;;;;;14.05;9.10;;;;;;;5.76;50.74;97762.44;5049143;28;20076;-61
2022/03/22 07:27:58;;;;;;;13.50;9.35;;;;;;;5.84;49.85;97768.94;5049498;28;20073;-61
2022/03/22 07:30:26;;;;;;;14.23;9.10;;;;;;;6.14;49.45;97770.84;5049845;28;20075;-62
2022/03/22 07:32:55;;;;;;;12.25;8.52;;;;;;;6.05;48.92;97769.56;5049176;28;20091;-61
2022/03/22 07:35:24;;;;;;;11.25;9.25;;;;;;;6.65;49.09;97766.22;5049979;28;20484;-58
2022/03/22 07:37:57;;;;;;;12.23;8.68;;;;;;;6.57;48.71;97757.94;5049308;28;20073;-59
2022/03/22 07:40:26;;;;;;;14.05;9.63;;;;;;;6.50;48.51;97767.09;5048551;28;20087;-60
2022/03/22 07:42:55;;;;;;;11.18;8.77;;;;;;;6.65;48.41;97766.22;5049056;28;20080;-61
2022/03/22 07:45:23;;;;;;;12.43;8.80;;;;;;;6.86;47.77;97761.53;5048621;28;20091;-61
2022/03/22 07:47:52;;;;;;;12.90;9.02;;;;;;;6.96;48.00;97760.06;5049145;28;20080;-61
2022/03/22 07:53:08;;;;;;;11.43;9.15;;;;;;;7.00;46.95;97766.78;5048529;28;20068;-60
2022/03/22 07:55:37;;;;;;;13.30;8.60;;;;;;;7.59;46.42;97766.78;5048704;28;20060;-59
2022/03/22 07:58:08;;;;;;;12.18;8.25;;;;;;;7.48;45.87;97769.22;5049289;28;20057;-60
2022/03/22 08:00:38;;;;;;;15.00;8.63;;;;;;;7.59;45.34;97775.47;5048266;28;20064;-62
2022/03/22 08:03:10;;;;;;;12.90;9.00;;;;;;;7.96;45.36;97767.97;5048632;28;20460;-59
2022/03/22 08:05:40;;;;;;;12.27;8.52;;;;;;;7.63;45.33;97768.25;5049423;28;20087;-60
2022/03/22 08:08:09;;;;;;;12.55;8.80;;;;;;;8.41;43.78;97762.53;5048395;28;20044;-62
2022/03/22 08:10:57;;;;;;;13.20;8.60;;;;;;;8.51;43.81;97763.63;5042353;28;20073;-62
2022/03/22 08:13:27;;;;;;;12.98;8.52;;;;;;;8.94;42.61;97760.78;5048633;28;20064;-61
2022/03/22 08:15:56;;;;;;;11.20;8.80;;;;;;;8.52;43.37;97763.53;5046751;28;20076;-61
2022/03/22 08:18:24;;;;;;;12.65;8.85;;;;;;;8.39;43.87;97764.41;5048371;28;20075;-62
2022/03/22 08:20:52;;;;;;;18.25;8.93;;;;;;;8.91;43.19;97763.63;5048623;28;20064;-61
2022/03/22 08:23:21;;;;;;;16.08;8.88;;;;;;;8.90;42.93;97764.59;5049341;28;20523;-61
2022/03/22 08:25:51;;;;;;;13.15;9.10;;;;;;;9.06;42.04;97765.25;5048742;28;20068;-59
2022/03/22 08:28:21;;;;;;;13.48;9.55;;;;;;;9.11;42.65;97757.88;5048424;28;20076;-59
2022/03/22 08:30:50;;;;;;;13.90;9.43;;;;;;;9.09;42.11;97766.84;5048298;28;20053;-60
2022/03/22 08:33:19;;;;;;;11.77;8.88;;;;;;;9.56;42.42;97754.84;5048890;28;20542;-61
2022/03/22 08:35:49;;;;;;;15.82;10.05;;;;;;;9.48;42.40;97758.00;5049198;28;20068;-61
2022/03/22 08:38:20;;;;;;;13.30;9.57;;;;;;;9.56;41.64;97757.47;5047539;28;20512;-61
2022/03/22 08:40:48;;;;;;;13.27;9.50;;;;;;;9.03;42.20;97763.66;5047708;28;20064;-62
2022/03/22 08:43:16;;;;;;;11.80;8.77;;;;;;;9.08;41.91;97762.50;5048036;28;20060;-61
2022/03/22 08:45:45;;;;;;;11.73;9.07;;;;;;;9.20;42.08;97759.91;5048013;28;20079;-61
2022/03/22 08:48:14;;;;;;;13.02;9.95;;;;;;;10.06;41.15;97751.28;5048432;28;20072;-57
2022/03/22 08:50:45;;;;;;;16.40;10.35;;;;;;;9.80;41.90;97753.13;5045791;28;20076;-61
2022/03/22 08:53:16;;;;;;;22.67;9.50;;;;;;;10.05;41.02;97759.28;5047486;28;20352;-59
2022/03/22 08:55:51;;;;;;;15.48;9.85;;;;;;;10.09;41.44;97750.22;5047894;28;20079;-59
2022/03/22 08:58:19;;;;;;;15.27;10.00;;;;;;;9.88;41.18;97747.34;5047987;28;20060;-61
2022/03/22 09:00:48;;;;;;;13.13;9.00;;;;;;;9.95;42.20;97741.50;5047634;28;20064;-61
2022/03/22 09:03:20;;;;;;;15.93;9.48;;;;;;;10.14;41.25;97748.94;5048221;28;20065;-60
2022/03/22 09:08:36;;;;;;;12.23;9.13;;;;;;;10.41;40.70;97746.13;5044570;28;20474;-58
2022/03/22 09:11:04;;;;;;;12.80;8.82;;;;;;;10.02;41.00;97741.09;5047497;28;20072;-60
2022/03/22 09:13:38;;;;;;;12.60;9.20;;;;;;;10.26;41.01;97738.50;5048422;28;20065;-58
2022/03/22 09:16:12;;;;;;;13.05;9.32;;;;;;;10.69;40.51;97734.38;5047393;28;20673;-62
2022/03/22 09:18:46;;;;;;;12.73;9.35;;;;;;;10.98;39.96;97735.78;5048131;28;20060;-62
2022/03/22 09:21:15;;;;;;;12.45;9.00;;;;;;;10.85;39.65;97730.63;5047671;28;20087;-61
2022/03/22 09:23:44;;;;;;;13.77;9.40;;;;;;;10.99;40.02;97725.13;5048388;28;20092;-59
2022/03/22 09:26:12;;;;;;;15.23;9.45;;;;;;;11.28;39.02;97732.63;5046383;28;20053;-60
2022/03/22 09:28:41;;;;;;;11.43;9.20;;;;;;;11.29;39.06;97731.69;5050748;28;20065;-61
2022/03/22 09:31:09;;;;;;;13.73;8.75;;;;;;;11.53;39.34;97729.78;5051907;28;20074;-62
2022/03/22 09:33:38;;;;;;;12.95;9.10;;;;;;;11.28;39.15;97730.81;5045409;28;20558;-59
2022/03/22 09:36:09;;;;;;;;;;;;;;;11.89;39.04;97733.16;5051439;28;20076;-62
2022/03/22 09:38:38;;;;;;;13.88;9.25;;;;;;;11.79;38.49;97729.53;5050667;28;19963;-61
2022/03/22 09:41:07;;;;;;;13.75;8.85;;;;;;;11.37;38.68;97726.66;5047320;28;20064;-60
2022/03/22 09:43:37;;;;;;;14.35;9.70;;;;;;;11.32;38.52;97729.66;5050667;28;20079;-58
2022/03/22 09:46:09;;;;;;;13.30;9.63;;;;;;;11.73;38.04;97730.00;5047687;28;20478;-59
2022/03/22 09:48:38;;;;;;;12.48;9.45;;;;;;;12.32;37.26;97719.16;5050833;28;20068;-58
2022/03/22 09:53:54;;;;;;;13.65;9.48;;;;;;;12.30;37.75;97718.44;5051078;28;20084;-56
2022/03/22 09:56:25;;;;;;;12.57;9.43;;;;;;;12.22;37.65;97712.94;5051383;28;20073;-60
2022/03/22 09:58:54;;;;;;;12.73;9.20;;;;;;;12.52;37.66;97717.53;5050514;28;20065;-62
2022/03/22 10:01:22;;;;;;;13.02;8.63;;;;;;;12.41;37.94;97715.75;5050384;28;20052;-59
2022/03/22 10:03:58;;;;;;;14.10;8.68;;;;;;;12.59;37.88;97722.22;5051039;28;20064;-58
2022/03/22 10:06:26;;;;;;;13.43;9.27;;;;;;;12.56;38.10;97713.69;5050582;28;20060;-60
2022/03/22 10:09:14;;;;;;;14.07;9.07;;;;;;;12.21;38.28;97714.72;5045459;28;20453;-61
2022/03/22 10:11:43;;;;;;;12.85;9.10;;;;;;;12.26;37.99;97720.50;5046363;28;20083;-58
2022/03/22 10:14:13;;;;;;;12.43;9.13;;;;;;;12.83;37.06;97710.53;5050644;28;20625;-62
2022/03/22 10:16:46;;;;;;;13.63;9.55;;;;;;;12.69;37.92;97709.03;5050381;28;20519;-61
2022/03/22 10:19:22;;;;;;;11.43;9.32;;;;;;;12.85;37.49;97708.59;5050146;28;20080;-61
2022/03/22 10:21:52;;;;;;;13.65;8.68;;;;;;;13.41;36.53;97699.50;5048464;28;20075;-62
2022/03/22 10:24:23;;;;;;;14.32;10.07;;;;;;;13.20;37.34;97707.44;5050612;28;20065;-63
2022/03/22 10:26:51;;;;;;;13.73;9.13;;;;;;;12.92;37.34;97696.53;5048897;28;20088;-59
2022/03/22 10:29:20;;;;;;;12.90;9.23;;;;;;;13.01;37.49;97698.41;5053792;28;20462;-60
2022/03/22 10:31:49;;;;;;;13.10;9.13;;;;;;;12.78;37.37;97695.03;5045009;28;20067;-63
2022/03/22 10:34:18;;;;;;;14.20;9.52;;;;;;;12.69;38.01;97701.09;5049857;28;20067;-61
2022/03/22 10:36:46;;;;;;;14.20;9.93;;;;;;;12.94;37.73;97694.63;5050005;28;20072;-63
2022/03/22 10:39:14;;;;;;;15.30;9.55;;;;;;;12.81;38.02;97693.94;5048684;28;20065;-61
2022/03/22 10:41:45;;;;;;;14.20;9.90;;;;;;;12.96;38.11;97691.81;5050470;28;20839;-59
2022/03/22 10:44:15;;;;;;;12.32;9.45;;;;;;;13.32;37.28;97695.84;5049514;28;20076;-59
2022/03/22 10:46:47;;;;;;;14.18;9.20;;;;;;;13.47;37.00;97691.88;5050037;28;20061;-61
2022/03/22 10:49:17;;;;;;;13.50;9.15;;;;;;;13.77;36.85;97696.31;5043914;28;20491;-56
2022/03/22 10:52:01;;;;;;;14.90;10.45;;;;;;;13.09;37.11;97699.56;5046213;28;20067;-57
2022/03/22 10:54:29;;;;;;;15.02;9.23;;;;;;;13.11;36.80;97687.91;5050172;28;20072;-58
2022/03/22 10:57:00;;;;;;;13.73;9.77;;;;;;;13.47;36.22;97691.03;5048994;28;20666;-59
2022/03/22 10:59:30;;;;;;;12.68;9.27;;;;;;;14.23;35.78;97678.16;5048311;28;20083;-62
2022/03/22 11:01:58;;;;;;;14.23;9.77;;;;;;;13.73;35.85;97686.13;5049718;28;20073;-62
2022/03/22 11:04:27;;;;;;;15.18;9.77;;;;;;;14.18;36.27;97680.38;5049441;28;20075;-59
2022/03/22 11:07:03;;;;;;;15.65;9.82;;;;;;;14.30;36.49;97683.75;5049556;28;20102;-61
2022/03/22 11:09:31;;;;;;;;;;;;;;;13.76;36.75;97673.44;5050077;28;20061;-59
2022/03/22 11:12:01;;;;;;;12.80;9.10;;;;;;;14.33;36.17;97670.19;5049060;28;19975;-58
2022/03/22 11:14:29;;;;;;;;;;;;;;;13.87;36.43;97677.81;5050715;28;20095;-61
2022/03/22 11:16:58;;;;;;;13.35;9.82;;;;;;;13.88;36.23;97671.50;5049235;28;20488;-62
2022/03/22 11:19:26;;;;;;;15.85;9.75;;;;;;;13.76;36.01;97667.28;5049214;28;20075;-61
2022/03/22 11:22:05;;;;;;;12.73;8.90;;;;;;;14.15;35.04;97678.84;5049085;28;20067;-61
2022/03/22 11:24:36;;;;;;;14.82;9.38;;;;;;;14.36;35.82;97668.09;5049441;28;20068;-61
2022/03/22 11:27:07;;;;;;;14.02;9.40;;;;;;;14.67;34.83;97663.53;5046862;28;20084;-61
2022/03/22 11:29:38;;;;;;;13.68;9.45;;;;;;;14.67;34.55;97660.88;5049714;28;20243;-60
2022/03/22 11:34:54;;;;;;;16.02;9.52;;;;;;;14.09;33.78;97658.16;5047414;28;20079;-59
2022/03/22 11:37:29;;;;;;;14.15;9.50;;;;;;;14.53;34.96;97653.34;5048545;28;20518;-61
2022/03/22 11:42:53;;;;;;;15.13;9.43;;;;;;;14.63;34.08;97656.00;5043862;28;20072;-61
2022/03/22 11:45:25;;;;;;;14.45;8.95;;;;;;;14.82;33.46;97645.34;5049046;28;20061;-61
2022/03/22 11:47:54;;;;;;;20.15;9.65;;;;;;;14.79;34.45;97652.75;5048899;28;20080;-60
2022/03/22 11:50:23;;;;;;;16.38;9.48;;;;;;;14.75;33.57;97649.53;5048574;28;20112;-60
2022/03/22 11:53:00;;;;;;;12.80;9.43;;;;;;;15.15;34.03;97651.16;5048812;28;20068;-58
2022/03/22 11:55:29;;;;;;;13.05;10.18;;;;;;;15.20;34.67;97646.25;5048699;28;20065;-62
2022/03/22 11:58:04;;;;;;;11.77;9.07;;;;;;;15.26;33.70;97636.84;5048759;28;20148;-62
2022/03/22 12:00:42;;;;;;;16.08;9.27;;;;;;;15.28;32.96;97641.06;5048257;28;20075;-61
2022/03/22 12:03:12;;;;;;;14.57;9.32;;;;;;;15.59;33.39;97630.16;5043264;28;20069;-61
2022/03/22 12:05:41;;;;;;;13.07;9.27;;;;;;;15.00;34.29;97629.50;5049272;28;20073;-62
2022/03/22 12:08:13;;;;;;;12.13;9.00;;;;;;;15.13;33.39;97622.06;5048215;28;20076;-61
2022/03/22 12:10:46;;;;;;;15.52;9.82;;;;;;;15.55;33.52;97626.94;5048588;28;20064;-62
2022/03/22 12:13:16;;;;;;;12.98;9.65;;;;;;;15.80;33.66;97619.31;5048318;28;20065;-61
2022/03/22 12:15:56;;;;;;;14.65;9.65;;;;;;;15.57;34.10;97618.81;5048648;28;20061;-59
2022/03/22 12:18:28;;;;;;;13.45;10.18;;;;;;;15.75;33.00;97617.06;5048570;28;20075;-61
2022/03/22 12:20:57;;;;;;;13.77;9.63;;;;;;;15.67;33.74;97609.00;5048713;28;20080;-61
2022/03/22 12:23:26;;;;;;;14.32;10.00;;;;;;;15.52;33.03;97611.31;5047247;28;20076;-63
2022/03/22 12:25:55;;;;;;;15.57;9.93;;;;;;;16.19;32.84;97611.06;5048103;28;20061;-62